sensor_id;sensor_type;location;lat;lon;timestamp;P1;durP1;ratioP1;P2;durP2;ratioP2
22359;SDS011;71759;52.034;4.706;2023-07-31T11:25:52;15.50;;;4.80;;
22359;SDS011;71759;52.034;4.706;2023-07-31T11:28:23;15.70;;;4.45;;
22359;SDS011;71759;52.034;4.706;2023-07-31T11:30:49;13.63;;;3.70;;
22359;SDS011;71759;52.034;4.706;2023-07-31T11:33:15;14.77;;;3.77;;
22359;SDS011;71759;52.034;4.706;2023-07-31T11:35:44;12.17;;;3.00;;
22359;SDS011;71759;52.034;4.706;2023-07-31T11:38:20;12.30;;;2.90;;
22359;SDS011;71759;52.034;4.706;2023-07-31T11:41:05;11.43;;;3.20;;
22359;SDS011;71759;52.034;4.706;2023-07-31T11:43:30;10.20;;;3.58;;
22359;SDS011;71759;52.034;4.706;2023-07-31T11:45:57;11.15;;;3.42;;
22359;SDS011;71759;52.034;4.706;2023-07-31T11:48:28;9.98;;;3.30;;
22359;SDS011;71759;52.034;4.706;2023-07-31T11:50:58;8.87;;;2.73;;
22359;SDS011;71759;52.034;4.706;2023-07-31T11:53:28;8.60;;;2.80;;
22359;SDS011;71759;52.034;4.706;2023-07-31T11:56:14;8.67;;;2.90;;
22359;SDS011;71759;52.034;4.706;2023-07-31T11:58:42;9.23;;;2.83;;
22359;SDS011;71759;52.034;4.706;2023-07-31T12:01:10;9.88;;;2.88;;
22359;SDS011;71759;52.034;4.706;2023-07-31T12:03:37;13.93;;;3.00;;
22359;SDS011;71759;52.034;4.706;2023-07-31T12:06:03;9.10;;;2.85;;
22359;SDS011;71759;52.034;4.706;2023-07-31T12:08:29;8.18;;;2.80;;
22359;SDS011;71759;52.034;4.706;2023-07-31T12:10:54;8.17;;;3.17;;
22359;SDS011;71759;52.034;4.706;2023-07-31T12:13:31;6.05;;;2.47;;
22359;SDS011;71759;52.034;4.706;2023-07-31T12:15:58;7.07;;;2.20;;
22359;SDS011;71759;52.034;4.706;2023-07-31T12:18:27;10.37;;;2.77;;
22359;SDS011;71759;52.034;4.706;2023-07-31T12:20:55;9.15;;;2.53;;
22359;SDS011;71759;52.034;4.706;2023-07-31T12:23:23;9.10;;;2.50;;
22359;SDS011;71759;52.034;4.706;2023-07-31T12:28:40;7.05;;;2.38;;
22359;SDS011;71759;52.034;4.706;2023-07-31T14:15:37;3.37;;;1.43;;
22359;SDS011;71759;52.034;4.706;2023-07-31T14:18:02;1.87;;;1.30;;
22359;SDS011;71759;52.034;4.706;2023-07-31T14:20:28;1.77;;;1.40;;
22359;SDS011;71759;52.034;4.706;2023-07-31T14:22:55;2.38;;;1.40;;
22359;SDS011;71759;52.034;4.706;2023-07-31T14:25:20;1.80;;;1.48;;
22359;SDS011;71759;52.034;4.706;2023-07-31T14:27:48;1.88;;;1.20;;
22359;SDS011;71759;52.034;4.706;2023-07-31T14:30:14;1.98;;;1.00;;
22359;SDS011;71759;52.034;4.706;2023-07-31T14:32:40;1.20;;;1.00;;
22359;SDS011;71759;52.034;4.706;2023-07-31T14:35:05;1.40;;;0.90;;
22359;SDS011;71759;52.034;4.706;2023-07-31T14:37:39;1.15;;;0.90;;
22359;SDS011;71759;52.034;4.706;2023-07-31T14:40:07;1.85;;;0.98;;
22359;SDS011;71759;52.034;4.706;2023-07-31T14:42:33;2.22;;;1.08;;
22359;SDS011;71759;52.034;4.706;2023-07-31T14:44:59;1.50;;;1.00;;
22359;SDS011;71759;52.034;4.706;2023-07-31T14:47:25;1.63;;;1.20;;
22359;SDS011;71759;52.034;4.706;2023-07-31T14:49:50;1.60;;;0.90;;
22359;SDS011;71759;52.034;4.706;2023-07-31T14:52:16;1.93;;;1.00;;
22359;SDS011;71759;52.034;4.706;2023-07-31T14:54:41;1.93;;;1.40;;
22359;SDS011;71759;52.034;4.706;2023-07-31T14:57:08;1.53;;;1.20;;
22359;SDS011;71759;52.034;4.706;2023-07-31T14:59:33;4.03;;;1.80;;
22359;SDS011;71759;52.034;4.706;2023-07-31T15:01:59;1.60;;;1.50;;
22359;SDS011;71759;52.034;4.706;2023-07-31T15:04:24;3.40;;;1.67;;
22359;SDS011;71759;52.034;4.706;2023-07-31T15:06:50;1.77;;;1.33;;
22359;SDS011;71759;52.034;4.706;2023-07-31T15:09:16;2.15;;;1.35;;
22359;SDS011;71759;52.034;4.706;2023-07-31T15:11:42;6.13;;;1.60;;
22359;SDS011;71759;52.034;4.706;2023-07-31T15:14:07;3.60;;;1.60;;
22359;SDS011;71759;52.034;4.706;2023-07-31T15:16:33;3.10;;;1.50;;
22359;SDS011;71759;52.034;4.706;2023-07-31T15:18:59;2.65;;;1.48;;
22359;SDS011;71759;52.034;4.706;2023-07-31T15:21:25;2.30;;;1.20;;
22359;SDS011;71759;52.034;4.706;2023-07-31T15:23:50;2.50;;;1.40;;
22359;SDS011;71759;52.034;4.706;2023-07-31T15:26:16;2.17;;;1.10;;
22359;SDS011;71759;52.034;4.706;2023-07-31T15:28:41;1.60;;;1.20;;
22359;SDS011;71759;52.034;4.706;2023-07-31T15:31:07;2.53;;;1.13;;
22359;SDS011;71759;52.034;4.706;2023-07-31T15:33:33;1.77;;;1.20;;
22359;SDS011;71759;52.034;4.706;2023-07-31T15:35:58;1.80;;;1.03;;
22359;SDS011;71759;52.034;4.706;2023-07-31T15:38:24;1.77;;;1.13;;
22359;SDS011;71759;52.034;4.706;2023-07-31T15:40:49;1.80;;;1.20;;
22359;SDS011;71759;52.034;4.706;2023-07-31T15:43:16;1.45;;;1.15;;
22359;SDS011;71759;52.034;4.706;2023-07-31T15:45:42;1.10;;;0.80;;
22359;SDS011;71759;52.034;4.706;2023-07-31T15:48:07;1.23;;;0.90;;
22359;SDS011;71759;52.034;4.706;2023-07-31T15:50:33;2.03;;;1.07;;
22359;SDS011;71759;52.034;4.706;2023-07-31T15:52:58;2.13;;;1.00;;
22359;SDS011;71759;52.034;4.706;2023-07-31T15:55:24;1.97;;;1.20;;
22359;SDS011;71759;52.034;4.706;2023-07-31T15:57:50;1.45;;;1.00;;
22359;SDS011;71759;52.034;4.706;2023-07-31T16:00:16;1.60;;;1.20;;
22359;SDS011;71759;52.034;4.706;2023-07-31T16:02:42;1.95;;;1.40;;
22359;SDS011;71759;52.034;4.706;2023-07-31T16:05:08;2.08;;;1.30;;
22359;SDS011;71759;52.034;4.706;2023-07-31T16:07:33;2.50;;;1.33;;
22359;SDS011;71759;52.034;4.706;2023-07-31T16:09:59;1.30;;;1.00;;
22359;SDS011;71759;52.034;4.706;2023-07-31T16:12:25;1.40;;;0.97;;
22359;SDS011;71759;52.034;4.706;2023-07-31T16:14:51;1.85;;;0.98;;
22359;SDS011;71759;52.034;4.706;2023-07-31T16:17:16;1.92;;;1.00;;
22359;SDS011;71759;52.034;4.706;2023-07-31T16:19:41;3.38;;;0.90;;
22359;SDS011;71759;52.034;4.706;2023-07-31T16:22:07;2.00;;;1.00;;
22359;SDS011;71759;52.034;4.706;2023-07-31T16:24:33;2.93;;;0.90;;
22359;SDS011;71759;52.034;4.706;2023-07-31T16:26:58;1.27;;;0.80;;
22359;SDS011;71759;52.034;4.706;2023-07-31T16:29:24;1.70;;;0.80;;
22359;SDS011;71759;52.034;4.706;2023-07-31T16:31:49;2.15;;;1.05;;
22359;SDS011;71759;52.034;4.706;2023-07-31T16:34:15;1.70;;;1.00;;
22359;SDS011;71759;52.034;4.706;2023-07-31T16:36:41;1.83;;;1.07;;
22359;SDS011;71759;52.034;4.706;2023-07-31T16:39:07;1.88;;;1.20;;
22359;SDS011;71759;52.034;4.706;2023-07-31T16:41:32;1.42;;;1.10;;
22359;SDS011;71759;52.034;4.706;2023-07-31T16:43:58;1.33;;;1.00;;
22359;SDS011;71759;52.034;4.706;2023-07-31T17:49:33;12.35;;;3.50;;
22359;SDS011;71759;52.034;4.706;2023-07-31T17:51:59;13.00;;;3.35;;
22359;SDS011;71759;52.034;4.706;2023-07-31T17:54:26;11.47;;;2.80;;
22359;SDS011;71759;52.034;4.706;2023-07-31T17:56:52;8.80;;;2.25;;
22359;SDS011;71759;52.034;4.706;2023-07-31T17:59:18;11.18;;;2.00;;
22359;SDS011;71759;52.034;4.706;2023-07-31T18:01:44;8.07;;;2.27;;
22359;SDS011;71759;52.034;4.706;2023-07-31T18:04:09;10.37;;;2.10;;
22359;SDS011;71759;52.034;4.706;2023-07-31T18:06:36;7.97;;;2.00;;
22359;SDS011;71759;52.034;4.706;2023-07-31T18:09:02;12.07;;;2.10;;
22359;SDS011;71759;52.034;4.706;2023-07-31T18:11:28;11.50;;;2.10;;
22359;SDS011;71759;52.034;4.706;2023-07-31T18:13:55;9.85;;;2.15;;
22359;SDS011;71759;52.034;4.706;2023-07-31T18:16:21;9.07;;;1.88;;
22359;SDS011;71759;52.034;4.706;2023-07-31T18:18:47;9.33;;;2.00;;
22359;SDS011;71759;52.034;4.706;2023-07-31T18:21:12;11.63;;;2.20;;
22359;SDS011;71759;52.034;4.706;2023-07-31T18:23:38;11.43;;;2.08;;
22359;SDS011;71759;52.034;4.706;2023-07-31T18:26:03;13.50;;;2.25;;
22359;SDS011;71759;52.034;4.706;2023-07-31T18:28:29;11.10;;;2.03;;
22359;SDS011;71759;52.034;4.706;2023-07-31T18:30:58;9.27;;;1.83;;
22359;SDS011;71759;52.034;4.706;2023-07-31T18:33:24;8.43;;;1.93;;
22359;SDS011;71759;52.034;4.706;2023-07-31T18:35:50;9.50;;;1.90;;
22359;SDS011;71759;52.034;4.706;2023-07-31T18:38:15;8.38;;;1.90;;
22359;SDS011;71759;52.034;4.706;2023-07-31T18:40:41;11.13;;;2.20;;
22359;SDS011;71759;52.034;4.706;2023-07-31T18:43:06;10.50;;;2.27;;
22359;SDS011;71759;52.034;4.706;2023-07-31T18:45:32;7.07;;;1.97;;
22359;SDS011;71759;52.034;4.706;2023-07-31T18:47:58;6.03;;;1.80;;
22359;SDS011;71759;52.034;4.706;2023-07-31T18:50:23;6.00;;;1.63;;
22359;SDS011;71759;52.034;4.706;2023-07-31T18:52:49;7.10;;;1.70;;
22359;SDS011;71759;52.034;4.706;2023-07-31T18:55:15;6.13;;;1.93;;
22359;SDS011;71759;52.034;4.706;2023-07-31T18:57:40;8.45;;;1.90;;
22359;SDS011;71759;52.034;4.706;2023-07-31T19:00:06;8.85;;;1.73;;
22359;SDS011;71759;52.034;4.706;2023-07-31T19:02:32;5.78;;;1.70;;
22359;SDS011;71759;52.034;4.706;2023-07-31T19:04:58;5.30;;;1.65;;
22359;SDS011;71759;52.034;4.706;2023-07-31T19:07:24;8.65;;;2.10;;
22359;SDS011;71759;52.034;4.706;2023-07-31T19:09:49;6.88;;;1.85;;
22359;SDS011;71759;52.034;4.706;2023-07-31T19:12:15;8.57;;;1.70;;
22359;SDS011;71759;52.034;4.706;2023-07-31T19:14:40;7.10;;;2.13;;
22359;SDS011;71759;52.034;4.706;2023-07-31T19:17:06;8.93;;;1.90;;
22359;SDS011;71759;52.034;4.706;2023-07-31T19:19:32;5.25;;;1.58;;
22359;SDS011;71759;52.034;4.706;2023-07-31T19:21:58;6.78;;;1.60;;
22359;SDS011;71759;52.034;4.706;2023-07-31T19:24:23;5.32;;;1.48;;
22359;SDS011;71759;52.034;4.706;2023-07-31T19:26:49;7.43;;;1.40;;
22359;SDS011;71759;52.034;4.706;2023-07-31T19:29:15;5.32;;;1.48;;
22359;SDS011;71759;52.034;4.706;2023-07-31T19:31:41;5.25;;;1.35;;
22359;SDS011;71759;52.034;4.706;2023-07-31T19:34:09;5.68;;;1.48;;
22359;SDS011;71759;52.034;4.706;2023-07-31T19:36:35;6.53;;;1.50;;
22359;SDS011;71759;52.034;4.706;2023-07-31T19:39:01;5.68;;;1.45;;
22359;SDS011;71759;52.034;4.706;2023-07-31T19:41:28;4.72;;;1.15;;
22359;SDS011;71759;52.034;4.706;2023-07-31T19:43:54;7.63;;;1.67;;
22359;SDS011;71759;52.034;4.706;2023-07-31T19:46:20;7.13;;;1.60;;
22359;SDS011;71759;52.034;4.706;2023-07-31T19:48:45;9.45;;;1.83;;
22359;SDS011;71759;52.034;4.706;2023-07-31T19:51:11;11.77;;;1.90;;
22359;SDS011;71759;52.034;4.706;2023-07-31T19:53:37;10.23;;;2.07;;
22359;SDS011;71759;52.034;4.706;2023-07-31T19:56:03;10.88;;;2.17;;
22359;SDS011;71759;52.034;4.706;2023-07-31T19:58:30;11.15;;;2.10;;
22359;SDS011;71759;52.034;4.706;2023-07-31T20:00:56;9.73;;;2.05;;
22359;SDS011;71759;52.034;4.706;2023-07-31T20:03:21;11.03;;;2.27;;
22359;SDS011;71759;52.034;4.706;2023-07-31T20:05:47;13.10;;;2.22;;
22359;SDS011;71759;52.034;4.706;2023-07-31T20:08:14;13.57;;;2.40;;
22359;SDS011;71759;52.034;4.706;2023-07-31T20:10:40;11.10;;;1.95;;
22359;SDS011;71759;52.034;4.706;2023-07-31T20:13:06;11.50;;;2.10;;
22359;SDS011;71759;52.034;4.706;2023-07-31T20:15:31;9.43;;;2.00;;
22359;SDS011;71759;52.034;4.706;2023-07-31T20:17:57;10.90;;;1.90;;
22359;SDS011;71759;52.034;4.706;2023-07-31T20:20:25;9.80;;;2.00;;
22359;SDS011;71759;52.034;4.706;2023-07-31T20:22:51;10.18;;;2.13;;
